sensor_id;sensor_type;location;lat;lon;timestamp;P1;durP1;ratioP1;P2;durP2;ratioP2
57047;SDS011;42934;54.294;18.598;2022-07-23T00:02:12;10.55;;;7.22;;
57047;SDS011;42934;54.294;18.598;2022-07-23T00:04:42;13.23;;;6.60;;
57047;SDS011;42934;54.294;18.598;2022-07-23T00:07:12;10.20;;;7.68;;
57047;SDS011;42934;54.294;18.598;2022-07-23T00:09:41;10.68;;;7.70;;
57047;SDS011;42934;54.294;18.598;2022-07-23T00:12:10;8.95;;;7.40;;
57047;SDS011;42934;54.294;18.598;2022-07-23T00:14:39;10.67;;;7.43;;
57047;SDS011;42934;54.294;18.598;2022-07-23T00:17:09;10.70;;;7.75;;
57047;SDS011;42934;54.294;18.598;2022-07-23T00:19:38;8.15;;;7.30;;
57047;SDS011;42934;54.294;18.598;2022-07-23T00:22:09;10.77;;;8.18;;
57047;SDS011;42934;54.294;18.598;2022-07-23T00:24:38;9.35;;;7.65;;
57047;SDS011;42934;54.294;18.598;2022-07-23T00:27:08;8.73;;;7.47;;
57047;SDS011;42934;54.294;18.598;2022-07-23T00:29:37;9.98;;;6.97;;
57047;SDS011;42934;54.294;18.598;2022-07-23T00:32:07;8.45;;;6.97;;
57047;SDS011;42934;54.294;18.598;2022-07-23T00:34:36;10.18;;;7.25;;
57047;SDS011;42934;54.294;18.598;2022-07-23T00:37:05;7.82;;;7.00;;
57047;SDS011;42934;54.294;18.598;2022-07-23T00:39:36;11.15;;;8.30;;
57047;SDS011;42934;54.294;18.598;2022-07-23T00:42:06;11.60;;;8.40;;
57047;SDS011;42934;54.294;18.598;2022-07-23T00:44:35;11.90;;;7.65;;
57047;SDS011;42934;54.294;18.598;2022-07-23T00:47:11;8.25;;;7.38;;
57047;SDS011;42934;54.294;18.598;2022-07-23T00:49:41;9.30;;;7.50;;
57047;SDS011;42934;54.294;18.598;2022-07-23T00:52:10;12.18;;;8.00;;
57047;SDS011;42934;54.294;18.598;2022-07-23T00:54:41;9.65;;;7.63;;
57047;SDS011;42934;54.294;18.598;2022-07-23T00:57:10;12.15;;;8.23;;
57047;SDS011;42934;54.294;18.598;2022-07-23T00:59:40;10.73;;;8.60;;
57047;SDS011;42934;54.294;18.598;2022-07-23T01:02:09;12.88;;;8.27;;
57047;SDS011;42934;54.294;18.598;2022-07-23T01:04:39;13.30;;;9.35;;
57047;SDS011;42934;54.294;18.598;2022-07-23T01:07:08;14.55;;;10.00;;
57047;SDS011;42934;54.294;18.598;2022-07-23T01:09:38;12.68;;;9.70;;
57047;SDS011;42934;54.294;18.598;2022-07-23T01:12:10;11.35;;;9.52;;
57047;SDS011;42934;54.294;18.598;2022-07-23T01:14:39;13.40;;;10.10;;
57047;SDS011;42934;54.294;18.598;2022-07-23T01:17:08;13.68;;;10.45;;
57047;SDS011;42934;54.294;18.598;2022-07-23T01:19:38;13.95;;;10.55;;
57047;SDS011;42934;54.294;18.598;2022-07-23T01:22:07;13.65;;;10.73;;
57047;SDS011;42934;54.294;18.598;2022-07-23T01:24:39;12.50;;;10.20;;
57047;SDS011;42934;54.294;18.598;2022-07-23T01:27:09;13.30;;;9.68;;
57047;SDS011;42934;54.294;18.598;2022-07-23T01:29:40;13.00;;;10.45;;
57047;SDS011;42934;54.294;18.598;2022-07-23T01:32:14;16.20;;;10.63;;
57047;SDS011;42934;54.294;18.598;2022-07-23T01:34:43;12.47;;;10.47;;
57047;SDS011;42934;54.294;18.598;2022-07-23T01:37:13;14.00;;;10.40;;
57047;SDS011;42934;54.294;18.598;2022-07-23T01:39:45;13.32;;;10.25;;
57047;SDS011;42934;54.294;18.598;2022-07-23T01:42:14;15.32;;;10.25;;
57047;SDS011;42934;54.294;18.598;2022-07-23T01:44:45;12.55;;;9.38;;
57047;SDS011;42934;54.294;18.598;2022-07-23T01:47:19;12.30;;;9.85;;
57047;SDS011;42934;54.294;18.598;2022-07-23T01:49:51;11.13;;;8.55;;
57047;SDS011;42934;54.294;18.598;2022-07-23T01:52:37;10.77;;;8.85;;
57047;SDS011;42934;54.294;18.598;2022-07-23T01:55:08;15.52;;;9.68;;
57047;SDS011;42934;54.294;18.598;2022-07-23T01:57:46;10.63;;;8.33;;
57047;SDS011;42934;54.294;18.598;2022-07-23T02:00:19;15.40;;;9.18;;
57047;SDS011;42934;54.294;18.598;2022-07-23T02:02:51;11.48;;;9.20;;
57047;SDS011;42934;54.294;18.598;2022-07-23T02:05:21;10.85;;;8.48;;
57047;SDS011;42934;54.294;18.598;2022-07-23T02:07:50;10.75;;;8.55;;
57047;SDS011;42934;54.294;18.598;2022-07-23T02:10:22;11.70;;;8.98;;
57047;SDS011;42934;54.294;18.598;2022-07-23T02:12:52;10.40;;;8.73;;
57047;SDS011;42934;54.294;18.598;2022-07-23T02:15:21;11.80;;;8.63;;
57047;SDS011;42934;54.294;18.598;2022-07-23T02:17:51;11.65;;;8.38;;
57047;SDS011;42934;54.294;18.598;2022-07-23T02:20:20;10.63;;;8.50;;
57047;SDS011;42934;54.294;18.598;2022-07-23T02:22:50;12.35;;;8.55;;
57047;SDS011;42934;54.294;18.598;2022-07-23T02:25:19;10.85;;;8.57;;
57047;SDS011;42934;54.294;18.598;2022-07-23T02:27:55;14.45;;;9.00;;
57047;SDS011;42934;54.294;18.598;2022-07-23T02:30:24;15.82;;;9.05;;
57047;SDS011;42934;54.294;18.598;2022-07-23T02:32:54;12.25;;;9.02;;
57047;SDS011;42934;54.294;18.598;2022-07-23T02:37:53;11.13;;;8.80;;
57047;SDS011;42934;54.294;18.598;2022-07-23T02:40:23;9.40;;;8.50;;
57047;SDS011;42934;54.294;18.598;2022-07-23T02:42:52;10.60;;;8.88;;
57047;SDS011;42934;54.294;18.598;2022-07-23T02:45:23;12.88;;;8.82;;
57047;SDS011;42934;54.294;18.598;2022-07-23T02:47:54;14.43;;;9.23;;
57047;SDS011;42934;54.294;18.598;2022-07-23T02:50:23;12.33;;;9.17;;
57047;SDS011;42934;54.294;18.598;2022-07-23T02:52:55;11.35;;;8.52;;
57047;SDS011;42934;54.294;18.598;2022-07-23T02:55:25;10.40;;;8.65;;
57047;SDS011;42934;54.294;18.598;2022-07-23T02:57:56;12.68;;;9.00;;
57047;SDS011;42934;54.294;18.598;2022-07-23T03:00:25;14.15;;;9.07;;
57047;SDS011;42934;54.294;18.598;2022-07-23T03:02:55;11.63;;;8.98;;
57047;SDS011;42934;54.294;18.598;2022-07-23T03:05:25;12.38;;;9.05;;
57047;SDS011;42934;54.294;18.598;2022-07-23T03:07:54;14.15;;;9.05;;
57047;SDS011;42934;54.294;18.598;2022-07-23T03:10:23;11.80;;;9.57;;
57047;SDS011;42934;54.294;18.598;2022-07-23T03:12:53;15.32;;;9.23;;
57047;SDS011;42934;54.294;18.598;2022-07-23T03:15:24;15.40;;;9.07;;
57047;SDS011;42934;54.294;18.598;2022-07-23T03:17:54;11.27;;;10.05;;
57047;SDS011;42934;54.294;18.598;2022-07-23T03:20:23;11.67;;;8.80;;
57047;SDS011;42934;54.294;18.598;2022-07-23T03:22:53;11.25;;;9.00;;
57047;SDS011;42934;54.294;18.598;2022-07-23T03:25:22;10.98;;;8.77;;
57047;SDS011;42934;54.294;18.598;2022-07-23T03:27:51;10.25;;;8.98;;
57047;SDS011;42934;54.294;18.598;2022-07-23T03:30:22;12.45;;;9.30;;
57047;SDS011;42934;54.294;18.598;2022-07-23T03:32:52;11.65;;;8.95;;
57047;SDS011;42934;54.294;18.598;2022-07-23T03:35:22;17.48;;;9.27;;
57047;SDS011;42934;54.294;18.598;2022-07-23T03:38:07;10.50;;;8.63;;
57047;SDS011;42934;54.294;18.598;2022-07-23T03:40:37;12.88;;;8.43;;
57047;SDS011;42934;54.294;18.598;2022-07-23T03:43:06;12.63;;;8.70;;
57047;SDS011;42934;54.294;18.598;2022-07-23T03:45:37;12.50;;;8.20;;
57047;SDS011;42934;54.294;18.598;2022-07-23T03:48:08;11.02;;;7.88;;
57047;SDS011;42934;54.294;18.598;2022-07-23T03:50:37;11.45;;;8.07;;
57047;SDS011;42934;54.294;18.598;2022-07-23T03:53:07;12.83;;;8.37;;
57047;SDS011;42934;54.294;18.598;2022-07-23T03:55:36;10.65;;;7.97;;
57047;SDS011;42934;54.294;18.598;2022-07-23T03:58:06;14.73;;;8.38;;
57047;SDS011;42934;54.294;18.598;2022-07-23T04:00:35;11.63;;;7.60;;
57047;SDS011;42934;54.294;18.598;2022-07-23T04:03:06;8.88;;;7.53;;
57047;SDS011;42934;54.294;18.598;2022-07-23T04:05:36;13.25;;;7.78;;
57047;SDS011;42934;54.294;18.598;2022-07-23T04:08:07;11.25;;;8.43;;
57047;SDS011;42934;54.294;18.598;2022-07-23T04:10:39;11.20;;;7.90;;
57047;SDS011;42934;54.294;18.598;2022-07-23T04:13:10;11.13;;;8.35;;
57047;SDS011;42934;54.294;18.598;2022-07-23T04:15:41;11.73;;;8.32;;
57047;SDS011;42934;54.294;18.598;2022-07-23T04:18:10;10.38;;;8.07;;
57047;SDS011;42934;54.294;18.598;2022-07-23T04:20:51;13.23;;;8.65;;
57047;SDS011;42934;54.294;18.598;2022-07-23T04:23:21;12.93;;;8.35;;
57047;SDS011;42934;54.294;18.598;2022-07-23T04:25:52;11.82;;;8.63;;
57047;SDS011;42934;54.294;18.598;2022-07-23T04:28:23;12.85;;;8.43;;
57047;SDS011;42934;54.294;18.598;2022-07-23T04:30:53;9.47;;;8.03;;
57047;SDS011;42934;54.294;18.598;2022-07-23T04:33:25;12.35;;;8.70;;
57047;SDS011;42934;54.294;18.598;2022-07-23T04:35:57;12.85;;;8.52;;
57047;SDS011;42934;54.294;18.598;2022-07-23T04:38:27;9.85;;;8.27;;
57047;SDS011;42934;54.294;18.598;2022-07-23T04:41:00;12.27;;;8.27;;
57047;SDS011;42934;54.294;18.598;2022-07-23T04:43:29;14.48;;;9.10;;
57047;SDS011;42934;54.294;18.598;2022-07-23T04:46:00;11.48;;;8.65;;
57047;SDS011;42934;54.294;18.598;2022-07-23T04:48:35;11.70;;;8.88;;
57047;SDS011;42934;54.294;18.598;2022-07-23T04:51:08;11.73;;;8.20;;
57047;SDS011;42934;54.294;18.598;2022-07-23T04:53:39;12.32;;;8.70;;
57047;SDS011;42934;54.294;18.598;2022-07-23T04:56:10;11.15;;;8.43;;
57047;SDS011;42934;54.294;18.598;2022-07-23T04:58:40;13.27;;;8.60;;
57047;SDS011;42934;54.294;18.598;2022-07-23T05:01:14;12.20;;;8.27;;
57047;SDS011;42934;54.294;18.598;2022-07-23T05:03:44;11.15;;;8.18;;
57047;SDS011;42934;54.294;18.598;2022-07-23T05:06:15;11.20;;;8.48;;
57047;SDS011;42934;54.294;18.598;2022-07-23T05:08:46;12.18;;;8.13;;
57047;SDS011;42934;54.294;18.598;2022-07-23T05:11:15;10.75;;;7.82;;
57047;SDS011;42934;54.294;18.598;2022-07-23T05:13:51;13.52;;;8.40;;
57047;SDS011;42934;54.294;18.598;2022-07-23T05:16:22;8.90;;;7.75;;
57047;SDS011;42934;54.294;18.598;2022-07-23T05:18:57;10.88;;;8.43;;
57047;SDS011;42934;54.294;18.598;2022-07-23T05:21:27;9.52;;;7.82;;
57047;SDS011;42934;54.294;18.598;2022-07-23T05:23:56;12.88;;;7.78;;
57047;SDS011;42934;54.294;18.598;2022-07-23T05:28:56;11.43;;;6.88;;
57047;SDS011;42934;54.294;18.598;2022-07-23T05:31:27;10.90;;;7.05;;
57047;SDS011;42934;54.294;18.598;2022-07-23T05:33:57;9.38;;;6.88;;
57047;SDS011;42934;54.294;18.598;2022-07-23T05:36:26;10.50;;;6.22;;
57047;SDS011;42934;54.294;18.598;2022-07-23T05:38:57;8.90;;;5.47;;
57047;SDS011;42934;54.294;18.598;2022-07-23T05:41:29;9.00;;;5.75;;
57047;SDS011;42934;54.294;18.598;2022-07-23T05:44:00;6.78;;;6.07;;
57047;SDS011;42934;54.294;18.598;2022-07-23T05:46:32;9.88;;;5.70;;
57047;SDS011;42934;54.294;18.598;2022-07-23T05:49:05;9.82;;;5.43;;
57047;SDS011;42934;54.294;18.598;2022-07-23T05:52:07;9.20;;;5.53;;
57047;SDS011;42934;54.294;18.598;2022-07-23T05:55:03;10.85;;;5.57;;
57047;SDS011;42934;54.294;18.598;2022-07-23T05:57:34;8.35;;;5.78;;
57047;SDS011;42934;54.294;18.598;2022-07-23T06:02:41;8.85;;;4.90;;
57047;SDS011;42934;54.294;18.598;2022-07-23T06:05:12;8.40;;;5.30;;
57047;SDS011;42934;54.294;18.598;2022-07-23T06:07:43;6.80;;;5.40;;
57047;SDS011;42934;54.294;18.598;2022-07-23T06:10:13;6.40;;;5.10;;
57047;SDS011;42934;54.294;18.598;2022-07-23T06:12:43;7.22;;;5.72;;
57047;SDS011;42934;54.294;18.598;2022-07-23T06:15:12;8.48;;;5.55;;
57047;SDS011;42934;54.294;18.598;2022-07-23T06:17:43;8.18;;;4.72;;
57047;SDS011;42934;54.294;18.598;2022-07-23T06:20:12;10.18;;;5.45;;
57047;SDS011;42934;54.294;18.598;2022-07-23T06:22:42;8.60;;;5.25;;
57047;SDS011;42934;54.294;18.598;2022-07-23T06:25:11;9.82;;;5.53;;
57047;SDS011;42934;54.294;18.598;2022-07-23T06:27:46;6.20;;;5.05;;
57047;SDS011;42934;54.294;18.598;2022-07-23T06:30:16;9.20;;;5.32;;
57047;SDS011;42934;54.294;18.598;2022-07-23T06:32:48;9.27;;;5.60;;
57047;SDS011;42934;54.294;18.598;2022-07-23T06:35:17;8.82;;;5.47;;
57047;SDS011;42934;54.294;18.598;2022-07-23T06:37:47;9.55;;;5.13;;
57047;SDS011;42934;54.294;18.598;2022-07-23T06:40:16;10.15;;;5.20;;
57047;SDS011;42934;54.294;18.598;2022-07-23T06:42:47;13.90;;;5.10;;
57047;SDS011;42934;54.294;18.598;2022-07-23T06:45:21;7.78;;;5.03;;
57047;SDS011;42934;54.294;18.598;2022-07-23T06:47:53;7.57;;;5.30;;
57047;SDS011;42934;54.294;18.598;2022-07-23T06:50:22;8.25;;;5.47;;
57047;SDS011;42934;54.294;18.598;2022-07-23T06:52:51;6.55;;;4.93;;
57047;SDS011;42934;54.294;18.598;2022-07-23T06:55:21;11.77;;;5.37;;
57047;SDS011;42934;54.294;18.598;2022-07-23T06:57:50;9.70;;;5.70;;
57047;SDS011;42934;54.294;18.598;2022-07-23T07:00:20;9.05;;;5.18;;
57047;SDS011;42934;54.294;18.598;2022-07-23T07:02:49;7.57;;;5.13;;
57047;SDS011;42934;54.294;18.598;2022-07-23T07:05:20;9.07;;;5.20;;
57047;SDS011;42934;54.294;18.598;2022-07-23T07:07:52;10.27;;;5.20;;
57047;SDS011;42934;54.294;18.598;2022-07-23T07:10:21;8.13;;;5.25;;
57047;SDS011;42934;54.294;18.598;2022-07-23T07:12:51;10.15;;;5.38;;
57047;SDS011;42934;54.294;18.598;2022-07-23T07:15:20;9.48;;;5.20;;
57047;SDS011;42934;54.294;18.598;2022-07-23T07:17:50;7.47;;;5.30;;
57047;SDS011;42934;54.294;18.598;2022-07-23T07:20:20;9.02;;;6.07;;
57047;SDS011;42934;54.294;18.598;2022-07-23T07:22:50;8.55;;;5.63;;
57047;SDS011;42934;54.294;18.598;2022-07-23T07:25:19;7.70;;;5.90;;
57047;SDS011;42934;54.294;18.598;2022-07-23T07:27:49;8.38;;;6.10;;
57047;SDS011;42934;54.294;18.598;2022-07-23T07:30:18;7.22;;;5.10;;
57047;SDS011;42934;54.294;18.598;2022-07-23T07:32:47;6.95;;;5.60;;
57047;SDS011;42934;54.294;18.598;2022-07-23T07:35:24;7.22;;;5.50;;
57047;SDS011;42934;54.294;18.598;2022-07-23T07:37:53;9.43;;;5.90;;
57047;SDS011;42934;54.294;18.598;2022-07-23T07:40:22;7.65;;;5.35;;
57047;SDS011;42934;54.294;18.598;2022-07-23T07:42:59;7.57;;;5.68;;
57047;SDS011;42934;54.294;18.598;2022-07-23T07:45:30;9.57;;;6.05;;
57047;SDS011;42934;54.294;18.598;2022-07-23T07:47:59;8.15;;;5.55;;
57047;SDS011;42934;54.294;18.598;2022-07-23T07:50:30;9.95;;;5.70;;
57047;SDS011;42934;54.294;18.598;2022-07-23T07:53:00;7.57;;;5.68;;
57047;SDS011;42934;54.294;18.598;2022-07-23T07:55:29;7.30;;;5.45;;
57047;SDS011;42934;54.294;18.598;2022-07-23T07:57:58;9.73;;;6.28;;
57047;SDS011;42934;54.294;18.598;2022-07-23T08:00:28;9.18;;;6.03;;
57047;SDS011;42934;54.294;18.598;2022-07-23T08:02:58;8.90;;;6.00;;
57047;SDS011;42934;54.294;18.598;2022-07-23T08:05:30;6.60;;;5.88;;
57047;SDS011;42934;54.294;18.598;2022-07-23T08:08:00;7.57;;;5.90;;
57047;SDS011;42934;54.294;18.598;2022-07-23T08:10:29;7.78;;;5.78;;
57047;SDS011;42934;54.294;18.598;2022-07-23T08:12:59;7.28;;;6.00;;
57047;SDS011;42934;54.294;18.598;2022-07-23T08:15:29;8.23;;;5.40;;
57047;SDS011;42934;54.294;18.598;2022-07-23T08:17:59;7.47;;;5.60;;
57047;SDS011;42934;54.294;18.598;2022-07-23T08:20:29;7.60;;;5.38;;
57047;SDS011;42934;54.294;18.598;2022-07-23T08:23:01;8.45;;;5.47;;
57047;SDS011;42934;54.294;18.598;2022-07-23T08:25:32;9.35;;;5.53;;
57047;SDS011;42934;54.294;18.598;2022-07-23T08:28:04;6.68;;;5.35;;
57047;SDS011;42934;54.294;18.598;2022-07-23T08:30:34;7.43;;;5.20;;
57047;SDS011;42934;54.294;18.598;2022-07-23T08:33:05;8.02;;;5.60;;
57047;SDS011;42934;54.294;18.598;2022-07-23T08:35:57;6.00;;;5.25;;
57047;SDS011;42934;54.294;18.598;2022-07-23T08:38:30;7.50;;;5.28;;
57047;SDS011;42934;54.294;18.598;2022-07-23T08:40:59;10.73;;;5.75;;
57047;SDS011;42934;54.294;18.598;2022-07-23T08:43:31;7.18;;;5.93;;
57047;SDS011;42934;54.294;18.598;2022-07-23T08:46:02;6.88;;;5.50;;
57047;SDS011;42934;54.294;18.598;2022-07-23T08:48:33;7.70;;;5.57;;
57047;SDS011;42934;54.294;18.598;2022-07-23T08:51:07;9.40;;;5.75;;
57047;SDS011;42934;54.294;18.598;2022-07-23T08:53:37;7.50;;;5.80;;
57047;SDS011;42934;54.294;18.598;2022-07-23T08:56:07;8.70;;;5.80;;
57047;SDS011;42934;54.294;18.598;2022-07-23T08:58:37;8.48;;;6.28;;
57047;SDS011;42934;54.294;18.598;2022-07-23T09:01:06;8.20;;;5.90;;
57047;SDS011;42934;54.294;18.598;2022-07-23T09:03:36;6.80;;;5.50;;
57047;SDS011;42934;54.294;18.598;2022-07-23T09:06:07;10.40;;;5.65;;
57047;SDS011;42934;54.294;18.598;2022-07-23T09:08:37;6.13;;;5.45;;
57047;SDS011;42934;54.294;18.598;2022-07-23T09:11:08;13.10;;;5.85;;
57047;SDS011;42934;54.294;18.598;2022-07-23T09:13:38;7.57;;;5.72;;
57047;SDS011;42934;54.294;18.598;2022-07-23T09:16:11;6.63;;;5.93;;
57047;SDS011;42934;54.294;18.598;2022-07-23T09:18:42;8.18;;;5.57;;
57047;SDS011;42934;54.294;18.598;2022-07-23T09:21:19;11.43;;;5.35;;
57047;SDS011;42934;54.294;18.598;2022-07-23T09:23:52;8.90;;;5.60;;
57047;SDS011;42934;54.294;18.598;2022-07-23T09:26:25;6.93;;;6.22;;
57047;SDS011;42934;54.294;18.598;2022-07-23T09:29:06;6.88;;;5.50;;
57047;SDS011;42934;54.294;18.598;2022-07-23T09:31:47;6.18;;;5.45;;
57047;SDS011;42934;54.294;18.598;2022-07-23T09:34:19;7.00;;;5.20;;
57047;SDS011;42934;54.294;18.598;2022-07-23T09:36:52;9.18;;;5.43;;
57047;SDS011;42934;54.294;18.598;2022-07-23T09:39:25;7.25;;;5.70;;
57047;SDS011;42934;54.294;18.598;2022-07-23T09:41:56;6.80;;;5.18;;
57047;SDS011;42934;54.294;18.598;2022-07-23T09:46:57;7.85;;;5.88;;
57047;SDS011;42934;54.294;18.598;2022-07-23T09:49:28;7.97;;;5.55;;
57047;SDS011;42934;54.294;18.598;2022-07-23T09:51:59;8.88;;;5.70;;
57047;SDS011;42934;54.294;18.598;2022-07-23T09:54:31;6.15;;;5.25;;
57047;SDS011;42934;54.294;18.598;2022-07-23T09:57:03;6.85;;;5.35;;
57047;SDS011;42934;54.294;18.598;2022-07-23T09:59:39;6.65;;;5.40;;
57047;SDS011;42934;54.294;18.598;2022-07-23T10:02:09;6.78;;;5.25;;
57047;SDS011;42934;54.294;18.598;2022-07-23T10:05:13;7.03;;;5.30;;
57047;SDS011;42934;54.294;18.598;2022-07-23T10:08:07;8.88;;;5.28;;
57047;SDS011;42934;54.294;18.598;2022-07-23T10:11:02;7.57;;;5.68;;
57047;SDS011;42934;54.294;18.598;2022-07-23T10:13:34;8.63;;;4.90;;
57047;SDS011;42934;54.294;18.598;2022-07-23T10:16:57;7.40;;;5.30;;
57047;SDS011;42934;54.294;18.598;2022-07-23T10:19:27;9.05;;;5.80;;
57047;SDS011;42934;54.294;18.598;2022-07-23T10:25:51;7.03;;;5.30;;
57047;SDS011;42934;54.294;18.598;2022-07-23T10:28:42;6.38;;;5.70;;
57047;SDS011;42934;54.294;18.598;2022-07-23T10:31:56;6.95;;;5.45;;
57047;SDS011;42934;54.294;18.598;2022-07-23T10:35:42;6.50;;;5.78;;
57047;SDS011;42934;54.294;18.598;2022-07-23T10:38:42;6.53;;;5.82;;
57047;SDS011;42934;54.294;18.598;2022-07-23T10:41:43;7.38;;;5.80;;
57047;SDS011;42934;54.294;18.598;2022-07-23T10:44:12;7.97;;;5.82;;
57047;SDS011;42934;54.294;18.598;2022-07-23T10:46:53;6.28;;;5.63;;
57047;SDS011;42934;54.294;18.598;2022-07-23T10:49:32;6.47;;;5.57;;
57047;SDS011;42934;54.294;18.598;2022-07-23T10:52:18;11.70;;;6.82;;
57047;SDS011;42934;54.294;18.598;2022-07-23T10:54:50;7.43;;;5.75;;
57047;SDS011;42934;54.294;18.598;2022-07-23T10:57:23;7.28;;;5.85;;
57047;SDS011;42934;54.294;18.598;2022-07-23T11:02:48;8.65;;;6.20;;
57047;SDS011;42934;54.294;18.598;2022-07-23T11:05:19;8.80;;;6.03;;
57047;SDS011;42934;54.294;18.598;2022-07-23T11:10:39;10.85;;;6.18;;
57047;SDS011;42934;54.294;18.598;2022-07-23T11:13:27;9.23;;;6.40;;
57047;SDS011;42934;54.294;18.598;2022-07-23T11:16:04;10.38;;;6.53;;
57047;SDS011;42934;54.294;18.598;2022-07-23T11:21:56;6.65;;;5.90;;
57047;SDS011;42934;54.294;18.598;2022-07-23T11:24:25;9.15;;;6.20;;
57047;SDS011;42934;54.294;18.598;2022-07-23T11:26:57;8.65;;;6.30;;
57047;SDS011;42934;54.294;18.598;2022-07-23T11:29:45;11.73;;;6.03;;
57047;SDS011;42934;54.294;18.598;2022-07-23T11:32:23;8.25;;;6.50;;
57047;SDS011;42934;54.294;18.598;2022-07-23T11:35:01;11.07;;;6.60;;
57047;SDS011;42934;54.294;18.598;2022-07-23T11:40:02;10.20;;;6.05;;
57047;SDS011;42934;54.294;18.598;2022-07-23T11:42:38;10.18;;;6.65;;
57047;SDS011;42934;54.294;18.598;2022-07-23T11:45:20;8.88;;;6.72;;
57047;SDS011;42934;54.294;18.598;2022-07-23T11:47:50;9.63;;;6.68;;
57047;SDS011;42934;54.294;18.598;2022-07-23T11:50:22;7.30;;;6.60;;
57047;SDS011;42934;54.294;18.598;2022-07-23T11:52:53;9.88;;;6.63;;
57047;SDS011;42934;54.294;18.598;2022-07-23T11:55:23;13.43;;;6.22;;
57047;SDS011;42934;54.294;18.598;2022-07-23T11:57:52;11.48;;;6.88;;
57047;SDS011;42934;54.294;18.598;2022-07-23T12:00:27;9.05;;;5.93;;
57047;SDS011;42934;54.294;18.598;2022-07-23T12:03:06;9.57;;;6.03;;
57047;SDS011;42934;54.294;18.598;2022-07-23T12:05:36;8.63;;;5.75;;
57047;SDS011;42934;54.294;18.598;2022-07-23T12:08:09;7.00;;;6.30;;
57047;SDS011;42934;54.294;18.598;2022-07-23T12:10:46;7.70;;;5.90;;
57047;SDS011;42934;54.294;18.598;2022-07-23T12:13:18;7.63;;;5.70;;
57047;SDS011;42934;54.294;18.598;2022-07-23T12:15:54;8.38;;;5.85;;
57047;SDS011;42934;54.294;18.598;2022-07-23T12:18:30;8.82;;;6.53;;
57047;SDS011;42934;54.294;18.598;2022-07-23T12:21:03;11.98;;;6.07;;
57047;SDS011;42934;54.294;18.598;2022-07-23T12:23:33;6.32;;;5.40;;
57047;SDS011;42934;54.294;18.598;2022-07-23T12:26:05;10.30;;;6.28;;
57047;SDS011;42934;54.294;18.598;2022-07-23T12:28:38;13.32;;;6.40;;
57047;SDS011;42934;54.294;18.598;2022-07-23T12:31:12;10.65;;;6.00;;
57047;SDS011;42934;54.294;18.598;2022-07-23T12:33:42;8.88;;;5.70;;
57047;SDS011;42934;54.294;18.598;2022-07-23T12:36:13;10.52;;;6.18;;
57047;SDS011;42934;54.294;18.598;2022-07-23T12:38:45;9.20;;;5.68;;
57047;SDS011;42934;54.294;18.598;2022-07-23T12:41:16;9.40;;;5.63;;
57047;SDS011;42934;54.294;18.598;2022-07-23T12:43:48;10.63;;;5.50;;
57047;SDS011;42934;54.294;18.598;2022-07-23T12:46:19;7.68;;;5.90;;
57047;SDS011;42934;54.294;18.598;2022-07-23T12:48:51;9.63;;;5.53;;
57047;SDS011;42934;54.294;18.598;2022-07-23T12:51:22;7.63;;;5.90;;
57047;SDS011;42934;54.294;18.598;2022-07-23T12:53:54;8.75;;;5.93;;
57047;SDS011;42934;54.294;18.598;2022-07-23T12:56:27;8.45;;;5.53;;
57047;SDS011;42934;54.294;18.598;2022-07-23T12:58:58;6.20;;;5.50;;
57047;SDS011;42934;54.294;18.598;2022-07-23T13:01:36;8.27;;;5.18;;
57047;SDS011;42934;54.294;18.598;2022-07-23T13:04:08;11.18;;;5.40;;
57047;SDS011;42934;54.294;18.598;2022-07-23T13:06:41;8.65;;;4.80;;
57047;SDS011;42934;54.294;18.598;2022-07-23T13:09:13;6.15;;;5.50;;
57047;SDS011;42934;54.294;18.598;2022-07-23T13:11:44;9.52;;;5.47;;
57047;SDS011;42934;54.294;18.598;2022-07-23T13:14:15;6.85;;;5.05;;
57047;SDS011;42934;54.294;18.598;2022-07-23T13:16:49;8.48;;;5.53;;
57047;SDS011;42934;54.294;18.598;2022-07-23T13:19:20;7.60;;;5.47;;
57047;SDS011;42934;54.294;18.598;2022-07-23T13:21:51;6.28;;;5.38;;
57047;SDS011;42934;54.294;18.598;2022-07-23T13:24:21;8.77;;;5.43;;
57047;SDS011;42934;54.294;18.598;2022-07-23T13:26:50;6.65;;;5.30;;
57047;SDS011;42934;54.294;18.598;2022-07-23T13:29:20;7.40;;;5.45;;
57047;SDS011;42934;54.294;18.598;2022-07-23T13:31:50;6.72;;;4.82;;
57047;SDS011;42934;54.294;18.598;2022-07-23T13:34:19;5.65;;;5.10;;
57047;SDS011;42934;54.294;18.598;2022-07-23T13:36:49;5.85;;;4.80;;
57047;SDS011;42934;54.294;18.598;2022-07-23T13:39:20;6.85;;;5.30;;
57047;SDS011;42934;54.294;18.598;2022-07-23T13:41:49;8.40;;;5.13;;
57047;SDS011;42934;54.294;18.598;2022-07-23T13:44:18;5.60;;;4.97;;
57047;SDS011;42934;54.294;18.598;2022-07-23T13:46:48;7.13;;;5.18;;
57047;SDS011;42934;54.294;18.598;2022-07-23T13:49:19;5.82;;;5.03;;
57047;SDS011;42934;54.294;18.598;2022-07-23T13:51:48;6.18;;;5.18;;
57047;SDS011;42934;54.294;18.598;2022-07-23T13:54:18;7.63;;;5.22;;
57047;SDS011;42934;54.294;18.598;2022-07-23T13:59:19;6.15;;;4.97;;
57047;SDS011;42934;54.294;18.598;2022-07-23T14:01:54;5.57;;;5.03;;
57047;SDS011;42934;54.294;18.598;2022-07-23T14:04:43;5.97;;;5.07;;
57047;SDS011;42934;54.294;18.598;2022-07-23T14:07:13;7.80;;;4.93;;
57047;SDS011;42934;54.294;18.598;2022-07-23T14:09:42;4.88;;;4.38;;
57047;SDS011;42934;54.294;18.598;2022-07-23T14:12:12;5.32;;;4.80;;
57047;SDS011;42934;54.294;18.598;2022-07-23T14:14:43;4.75;;;4.35;;
57047;SDS011;42934;54.294;18.598;2022-07-23T14:19:44;10.70;;;4.85;;
57047;SDS011;42934;54.294;18.598;2022-07-23T14:22:14;5.65;;;4.32;;
57047;SDS011;42934;54.294;18.598;2022-07-23T14:24:47;6.32;;;4.80;;
57047;SDS011;42934;54.294;18.598;2022-07-23T14:27:16;4.55;;;4.13;;
57047;SDS011;42934;54.294;18.598;2022-07-23T14:29:47;4.93;;;4.32;;
57047;SDS011;42934;54.294;18.598;2022-07-23T14:32:18;6.78;;;4.70;;
57047;SDS011;42934;54.294;18.598;2022-07-23T14:34:48;5.57;;;4.35;;
57047;SDS011;42934;54.294;18.598;2022-07-23T14:37:18;5.22;;;4.65;;
57047;SDS011;42934;54.294;18.598;2022-07-23T14:39:47;6.43;;;4.40;;
57047;SDS011;42934;54.294;18.598;2022-07-23T14:42:17;5.03;;;4.50;;
57047;SDS011;42934;54.294;18.598;2022-07-23T14:44:47;5.00;;;4.50;;
57047;SDS011;42934;54.294;18.598;2022-07-23T14:47:18;5.85;;;4.43;;
57047;SDS011;42934;54.294;18.598;2022-07-23T14:49:47;5.95;;;5.00;;
57047;SDS011;42934;54.294;18.598;2022-07-23T14:52:18;6.72;;;4.82;;
57047;SDS011;42934;54.294;18.598;2022-07-23T14:54:47;15.55;;;5.30;;
57047;SDS011;42934;54.294;18.598;2022-07-23T14:57:16;6.60;;;4.85;;
57047;SDS011;42934;54.294;18.598;2022-07-23T14:59:52;7.03;;;4.88;;
57047;SDS011;42934;54.294;18.598;2022-07-23T15:02:23;6.78;;;5.00;;
57047;SDS011;42934;54.294;18.598;2022-07-23T15:04:53;5.47;;;4.97;;
57047;SDS011;42934;54.294;18.598;2022-07-23T15:07:24;7.20;;;5.35;;
57047;SDS011;42934;54.294;18.598;2022-07-23T15:09:55;6.65;;;4.90;;
57047;SDS011;42934;54.294;18.598;2022-07-23T15:14:54;7.40;;;5.07;;
57047;SDS011;42934;54.294;18.598;2022-07-23T15:17:24;6.00;;;5.40;;
57047;SDS011;42934;54.294;18.598;2022-07-23T15:19:54;9.90;;;5.75;;
57047;SDS011;42934;54.294;18.598;2022-07-23T15:22:23;6.10;;;5.47;;
57047;SDS011;42934;54.294;18.598;2022-07-23T15:24:53;6.40;;;5.63;;
57047;SDS011;42934;54.294;18.598;2022-07-23T15:27:23;6.15;;;5.43;;
57047;SDS011;42934;54.294;18.598;2022-07-23T15:29:52;6.75;;;5.82;;
57047;SDS011;42934;54.294;18.598;2022-07-23T15:32:22;9.40;;;5.70;;